createdAt,value
2018-05-17T00:00:28.216Z,1018.47
2018-05-17T00:01:37.433Z,1018.36
2018-05-17T00:02:46.573Z,1018.4
2018-05-17T00:03:55.797Z,1018.49
2018-05-17T00:05:04.584Z,1018.48
2018-05-17T00:06:13.441Z,1018.44
2018-05-17T00:07:22.400Z,1018.37
2018-05-17T00:08:31.264Z,1018.48
2018-05-17T00:09:40.130Z,1018.44
2018-05-17T00:10:48.982Z,1018.62
2018-05-17T00:11:57.841Z,1018.49
2018-05-17T00:13:06.849Z,1018.43
2018-05-17T00:14:15.711Z,1018.5
2018-05-17T00:15:24.568Z,1018.56
2018-05-17T00:16:33.428Z,1018.53
2018-05-17T00:17:42.289Z,1018.55
2018-05-17T00:18:51.199Z,1018.51
2018-05-17T00:20:00.056Z,1018.49
2018-05-17T00:21:08.916Z,1018.49
2018-05-17T00:22:18.051Z,1018.49
2018-05-17T00:23:27.191Z,1018.52
2018-05-17T00:24:36.151Z,1018.43
2018-05-17T00:25:45.285Z,1018.45
2018-05-17T00:26:54.147Z,1018.48
2018-05-17T00:28:03.284Z,1018.46
2018-05-17T00:29:12.144Z,1018.55
2018-05-17T00:30:21.251Z,1018.5
2018-05-17T00:31:30.111Z,1018.55
2018-05-17T00:32:39.245Z,1018.47
2018-05-17T00:33:48.108Z,1018.64
2018-05-17T00:34:57.243Z,1018.56
2018-05-17T00:36:06.456Z,1018.6
2018-05-17T00:37:15.314Z,1018.61
2018-05-17T00:38:24.178Z,1018.57
2018-05-17T00:39:33.040Z,1018.61
2018-05-17T00:40:41.900Z,1018.63
2018-05-17T00:41:51.111Z,1018.58
2018-05-17T00:42:59.972Z,1018.61
2018-05-17T00:44:08.830Z,1018.59
2018-05-17T00:45:17.692Z,1018.58
2018-05-17T00:46:26.560Z,1018.58
2018-05-17T00:47:35.560Z,1018.61
2018-05-17T00:48:44.420Z,1018.56
2018-05-17T00:49:53.277Z,1018.66
2018-05-17T00:51:02.138Z,1018.57
2018-05-17T00:52:11.000Z,1018.57
2018-05-17T00:53:20.136Z,1018.68
2018-05-17T00:54:29.271Z,1018.68
2018-05-17T00:55:38.412Z,1018.63
2018-05-17T00:56:47.544Z,1018.71
2018-05-17T00:57:56.409Z,1018.58
2018-05-17T00:59:05.601Z,1018.59
2018-05-17T01:00:14.459Z,1018.61
2018-05-17T01:01:23.321Z,1018.59
2018-05-17T01:02:32.460Z,1018.64
2018-05-17T01:03:41.321Z,1018.61
2018-05-17T01:04:50.527Z,1018.64
2018-05-17T01:05:59.388Z,1018.61
2018-05-17T01:07:08.246Z,1018.65
2018-05-17T01:08:17.111Z,1018.65
2018-05-17T01:09:25.964Z,1018.72
2018-05-17T01:10:35.155Z,1018.66
2018-05-17T01:11:44.014Z,1018.66
2018-05-17T01:12:52.872Z,1018.63
2018-05-17T01:14:01.732Z,1018.66
2018-05-17T01:15:10.591Z,1018.64
2018-05-17T01:16:19.452Z,1018.67
2018-05-17T01:17:28.310Z,1018.62
2018-05-17T01:18:37.171Z,1018.75
2018-05-17T01:19:46.312Z,1018.69
2018-05-17T01:20:55.719Z,1018.67
2018-05-17T01:22:05.016Z,1018.66
2018-05-17T01:23:14.153Z,1018.62
2018-05-17T01:24:23.013Z,1018.58
2018-05-17T01:25:31.872Z,1018.64
2018-05-17T01:26:40.730Z,1018.64
2018-05-17T01:27:49.891Z,1018.67
2018-05-17T01:28:58.751Z,1018.54
2018-05-17T01:30:07.611Z,1018.6
2018-05-17T01:31:16.478Z,1018.57
2018-05-17T01:32:25.331Z,1018.57
2018-05-17T01:33:34.188Z,1018.6
2018-05-17T01:34:43.048Z,1018.55
2018-05-17T01:35:52.189Z,1018.65
2018-05-17T01:37:01.330Z,1018.57
2018-05-17T01:38:10.190Z,1018.57
2018-05-17T01:39:19.398Z,1018.57
2018-05-17T01:40:28.533Z,1018.56
2018-05-17T01:41:37.400Z,1018.69
2018-05-17T01:42:46.536Z,1018.61
2018-05-17T01:43:55.400Z,1018.59
2018-05-17T01:45:04.612Z,1018.68
2018-05-17T01:46:13.751Z,1018.63
2018-05-17T01:47:22.612Z,1018.67
2018-05-17T01:48:31.746Z,1018.63
2018-05-17T01:49:40.610Z,1018.65
2018-05-17T01:50:49.515Z,1018.66
2018-05-17T01:51:58.372Z,1018.67
2018-05-17T01:53:07.512Z,1018.7
2018-05-17T01:54:16.371Z,1018.62
2018-05-17T01:55:25.230Z,1018.69
2018-05-17T01:56:34.363Z,1018.68
2018-05-17T01:57:43.222Z,1018.71
2018-05-17T01:58:52.082Z,1018.67
2018-05-17T02:00:00.944Z,1018.65
2018-05-17T02:01:10.080Z,1018.7
2018-05-17T02:02:19.214Z,1018.67
2018-05-17T02:03:28.076Z,1018.77
2018-05-17T02:04:36.935Z,1018.64
2018-05-17T02:05:46.073Z,1018.68
2018-05-17T02:06:54.930Z,1018.64
2018-05-17T02:08:03.839Z,1018.69
2018-05-17T02:09:12.700Z,1018.68
2018-05-17T02:10:21.560Z,1018.72
2018-05-17T02:11:30.418Z,1018.78
2018-05-17T02:12:39.281Z,1018.74
2018-05-17T02:13:48.669Z,1018.77
2018-05-17T02:14:57.527Z,1018.74
2018-05-17T02:16:06.668Z,1018.73
2018-05-17T02:17:15.811Z,1018.73
2018-05-17T02:18:24.950Z,1018.68
2018-05-17T02:19:33.856Z,1018.68
2018-05-17T02:20:42.999Z,1018.66
2018-05-17T02:21:52.137Z,1018.68
2018-05-17T02:23:01.560Z,1018.85
2018-05-17T02:24:10.698Z,1018.65
2018-05-17T02:25:19.880Z,1018.73
2018-05-17T02:26:28.739Z,1018.7
2018-05-17T02:27:38.161Z,1018.71
2018-05-17T02:28:47.023Z,1018.76
2018-05-17T02:29:55.879Z,1018.75
2018-05-17T02:31:05.035Z,1018.68
2018-05-17T02:32:13.886Z,1018.69
2018-05-17T02:33:23.324Z,1018.73
2018-05-17T02:34:32.466Z,1018.72
2018-05-17T02:35:41.607Z,1018.78
2018-05-17T02:36:50.744Z,1018.77
2018-05-17T02:37:59.611Z,1018.77
2018-05-17T02:39:08.758Z,1018.9
2018-05-17T02:40:17.626Z,1018.84
2018-05-17T02:41:26.778Z,1018.85
2018-05-17T02:42:36.061Z,1018.77
2018-05-17T02:43:44.917Z,1018.79
2018-05-17T02:44:54.343Z,1018.84
2018-05-17T02:46:03.196Z,1018.84
2018-05-17T02:47:12.334Z,1018.87
2018-05-17T02:48:21.575Z,1018.83
2018-05-17T02:49:30.437Z,1018.87
2018-05-17T02:50:39.886Z,1018.9
2018-05-17T02:51:49.594Z,1018.88
2018-05-17T02:52:58.456Z,1018.86
2018-05-17T02:54:07.465Z,1018.9
2018-05-17T02:55:16.326Z,1018.85
2018-05-17T02:56:25.473Z,1018.93
2018-05-17T02:57:34.613Z,1018.86
2018-05-17T02:58:43.756Z,1018.88
2018-05-17T02:59:52.618Z,1019.12
2018-05-17T03:01:01.477Z,1018.82
2018-05-17T03:02:10.339Z,1018.82
2018-05-17T03:03:19.481Z,1018.79
2018-05-17T03:04:28.344Z,1019.01
2018-05-17T03:05:37.203Z,1018.86
2018-05-17T03:06:46.064Z,1018.87
2018-05-17T03:07:55.203Z,1018.83
2018-05-17T03:09:04.066Z,1018.89
2018-05-17T03:10:12.929Z,1018.86
2018-05-17T03:11:22.119Z,1018.8
2018-05-17T03:12:31.531Z,1018.81
2018-05-17T03:13:40.681Z,1018.87
2018-05-17T03:14:49.829Z,1018.83
2018-05-17T03:15:58.967Z,1018.87
2018-05-17T03:17:08.452Z,1018.85
2018-05-17T03:18:17.313Z,1018.87
2018-05-17T03:19:26.168Z,1018.86
2018-05-17T03:20:35.309Z,1018.75
2018-05-17T03:21:44.173Z,1018.84
2018-05-17T03:22:53.124Z,1018.91
2018-05-17T03:24:01.986Z,1018.83
2018-05-17T03:25:10.847Z,1018.91
2018-05-17T03:26:19.701Z,1018.9
2018-05-17T03:27:28.563Z,1018.88
2018-05-17T03:28:37.677Z,1018.94
2018-05-17T03:29:46.536Z,1018.98
2018-05-17T03:30:55.678Z,1018.84
2018-05-17T03:32:05.385Z,1018.89
2018-05-17T03:33:14.242Z,1018.9
2018-05-17T03:34:23.252Z,1018.97
2018-05-17T03:35:32.113Z,1018.9
2018-05-17T03:36:41.251Z,1018.87
2018-05-17T03:37:50.107Z,1018.87
2018-05-17T03:38:58.969Z,1018.91
2018-05-17T03:40:08.466Z,1018.92
2018-05-17T03:41:17.326Z,1018.9
2018-05-17T03:42:26.464Z,1018.97
2018-05-17T03:43:35.326Z,1018.9
2018-05-17T03:44:44.186Z,1018.88
2018-05-17T03:45:53.146Z,1018.94
2018-05-17T03:47:02.306Z,1018.87
2018-05-17T03:48:11.164Z,1018.89
2018-05-17T03:49:20.309Z,1018.88
2018-05-17T03:50:29.168Z,1018.85
2018-05-17T03:51:38.080Z,1018.84
2018-05-17T03:52:47.256Z,1018.82
2018-05-17T03:53:56.117Z,1018.9
2018-05-17T03:55:04.976Z,1018.86
2018-05-17T03:56:13.835Z,1018.96
2018-05-17T03:57:23.076Z,1018.85
2018-05-17T03:58:32.213Z,1018.84
2018-05-17T03:59:41.072Z,1018.89
2018-05-17T04:00:49.939Z,1018.83
2018-05-17T04:01:58.792Z,1018.93
2018-05-17T04:03:07.753Z,1018.89
2018-05-17T04:04:16.612Z,1018.98
2018-05-17T04:05:25.478Z,1018.96
2018-05-17T04:06:34.618Z,1018.9
2018-05-17T04:07:43.767Z,1018.98
2018-05-17T04:08:52.630Z,1018.91
2018-05-17T04:10:01.487Z,1018.99
2018-05-17T04:11:10.911Z,1018.94
2018-05-17T04:12:20.331Z,1018.95
2018-05-17T04:13:29.192Z,1018.96
2018-05-17T04:14:38.503Z,1018.96
2018-05-17T04:15:47.361Z,1018.97
2018-05-17T04:16:56.224Z,1018.93
2018-05-17T04:18:05.636Z,1018.92
2018-05-17T04:19:14.777Z,1018.92
2018-05-17T04:20:24.266Z,1019.07
2018-05-17T04:21:33.133Z,1018.99
2018-05-17T04:22:41.991Z,1019.04
2018-05-17T04:23:51.131Z,1018.95
2018-05-17T04:24:59.990Z,1018.97
2018-05-17T04:26:08.999Z,1018.95
2018-05-17T04:27:17.860Z,1018.91
2018-05-17T04:28:26.722Z,1018.88
2018-05-17T04:29:35.583Z,1018.91
2018-05-17T04:30:44.441Z,1018.96
2018-05-17T04:31:53.650Z,1018.82
2018-05-17T04:33:02.511Z,1018.92
2018-05-17T04:34:11.422Z,1018.91
2018-05-17T04:35:20.562Z,1018.82
2018-05-17T04:36:29.421Z,1018.9
2018-05-17T04:37:38.280Z,1018.89
2018-05-17T04:38:47.417Z,1019.04
2018-05-17T04:39:56.595Z,1018.87
2018-05-17T04:41:05.452Z,1018.93
2018-05-17T04:42:14.589Z,1018.91
2018-05-17T04:43:23.886Z,1018.9
2018-05-17T04:44:32.743Z,1018.92
2018-05-17T04:45:41.878Z,1018.85
2018-05-17T04:46:50.737Z,1019.06
2018-05-17T04:47:59.599Z,1018.93
2018-05-17T04:49:08.509Z,1018.94
2018-05-17T04:50:17.371Z,1018.92
2018-05-17T04:51:26.233Z,1019.06
2018-05-17T04:52:35.091Z,1018.91
2018-05-17T04:53:44.025Z,1019.04
2018-05-17T04:54:52.966Z,1018.97
2018-05-17T04:56:02.100Z,1018.94
2018-05-17T04:57:11.240Z,1019
2018-05-17T04:58:20.099Z,1018.94
2018-05-17T04:59:29.244Z,1018.93
2018-05-17T05:00:38.489Z,1018.98
2018-05-17T05:01:47.997Z,1019.04
2018-05-17T05:02:56.923Z,1019.06
2018-05-17T05:04:06.304Z,1019.02
2018-05-17T05:05:15.165Z,1018.99
2018-05-17T05:06:24.023Z,1019.04
2018-05-17T05:07:32.884Z,1019.04
2018-05-17T05:08:41.748Z,1019.01
2018-05-17T05:09:50.607Z,1019.06
2018-05-17T05:10:59.467Z,1018.99
2018-05-17T05:12:08.473Z,1019.12
2018-05-17T05:13:17.616Z,1019.3
2018-05-17T05:14:26.754Z,1018.99
2018-05-17T05:15:36.170Z,1019
2018-05-17T05:16:45.032Z,1019.03
2018-05-17T05:17:54.239Z,1019.06
2018-05-17T05:19:03.100Z,1019.12
2018-05-17T05:20:11.960Z,1019
2018-05-17T05:21:20.820Z,1019.03
2018-05-17T05:22:29.957Z,1019.04
2018-05-17T05:23:38.967Z,1019.01
2018-05-17T05:24:47.824Z,1018.95
2018-05-17T05:25:56.683Z,1018.99
2018-05-17T05:27:05.545Z,1019.08
2018-05-17T05:28:14.407Z,1018.91
2018-05-17T05:29:23.496Z,1018.95
2018-05-17T05:30:32.279Z,1018.93
2018-05-17T05:31:41.235Z,1018.94
2018-05-17T05:32:50.000Z,1018.88
2018-05-17T05:33:58.858Z,1018.94
2018-05-17T05:35:07.719Z,1019.05
2018-05-17T05:36:17.140Z,1018.93
2018-05-17T05:37:26.052Z,1018.99
2018-05-17T05:38:35.207Z,1019.01
2018-05-17T05:39:44.068Z,1018.96
2018-05-17T05:40:53.280Z,1018.99
2018-05-17T05:42:02.140Z,1019.03
2018-05-17T05:43:11.088Z,1019.06
2018-05-17T05:44:20.208Z,1019.1
2018-05-17T05:45:29.069Z,1019.04
2018-05-17T05:46:37.983Z,1018.96
2018-05-17T05:47:47.128Z,1018.99
2018-05-17T05:48:55.989Z,1018.95
2018-05-17T05:50:04.852Z,1019
2018-05-17T05:51:13.713Z,1019.06
2018-05-17T05:52:22.628Z,1019.03
2018-05-17T05:53:31.489Z,1019.01
2018-05-17T05:54:40.629Z,1019.03
2018-05-17T05:55:49.487Z,1019.04
2018-05-17T05:56:58.628Z,1019.03
2018-05-17T05:58:07.836Z,1019.02
2018-05-17T05:59:16.700Z,1019.07
2018-05-17T06:00:25.562Z,1019.02
2018-05-17T06:01:34.420Z,1018.99
2018-05-17T06:02:43.283Z,1019.04
2018-05-17T06:03:52.245Z,1019.08
2018-05-17T06:05:01.105Z,1019.04
2018-05-17T06:06:10.251Z,1019.08
2018-05-17T06:07:19.388Z,1019.08
2018-05-17T06:08:28.390Z,1019.09
2018-05-17T06:09:37.664Z,1019.13
2018-05-17T06:10:46.802Z,1019.11
2018-05-17T06:11:55.662Z,1019.14
2018-05-17T06:13:04.621Z,1019.21
2018-05-17T06:14:13.481Z,1019.22
2018-05-17T06:15:22.820Z,1019.23
2018-05-17T06:16:31.682Z,1019.15
2018-05-17T06:17:40.543Z,1019.26
2018-05-17T06:18:49.681Z,1019.21
2018-05-17T06:19:58.541Z,1019.16
2018-05-17T06:21:07.502Z,1019.3
2018-05-17T06:22:16.362Z,1019.23
2018-05-17T06:23:25.225Z,1019.24
2018-05-17T06:24:34.087Z,1019.21
2018-05-17T06:25:42.947Z,1019.27
2018-05-17T06:26:51.959Z,1019.31
2018-05-17T06:28:00.818Z,1019.23
2018-05-17T06:29:09.678Z,1019.41
2018-05-17T06:30:18.603Z,1019.28
2018-05-17T06:31:27.400Z,1019.28
2018-05-17T06:32:36.358Z,1019.23
2018-05-17T06:33:45.217Z,1019.28
2018-05-17T06:34:54.080Z,1019.27
2018-05-17T06:36:02.939Z,1019.27
2018-05-17T06:37:11.802Z,1019.35
2018-05-17T06:38:20.712Z,1019.29
2018-05-17T06:39:29.579Z,1019.32
2018-05-17T06:40:38.437Z,1019.3
2018-05-17T06:41:47.298Z,1019.25
2018-05-17T06:42:56.437Z,1019.34
2018-05-17T06:44:05.625Z,1019.28
2018-05-17T06:45:14.771Z,1019.31
2018-05-17T06:46:23.909Z,1019.23
2018-05-17T06:47:32.769Z,1019.46
2018-05-17T06:48:41.629Z,1019.3
2018-05-17T06:49:50.488Z,1019.35
2018-05-17T06:50:59.347Z,1019.37
2018-05-17T06:52:08.209Z,1019.34
2018-05-17T06:53:17.074Z,1019.36
2018-05-17T06:54:26.211Z,1019.35
2018-05-17T06:55:35.400Z,1019.44
2018-05-17T06:56:44.543Z,1019.48
2018-05-17T06:57:53.403Z,1019.44
2018-05-17T06:59:02.269Z,1019.45
2018-05-17T07:00:11.454Z,1019.47
2018-05-17T07:01:20.464Z,1019.49
2018-05-17T07:02:29.326Z,1019.47
2018-05-17T07:03:38.196Z,1019.44
2018-05-17T07:04:47.336Z,1019.52
2018-05-17T07:05:56.195Z,1019.52
2018-05-17T07:07:05.489Z,1019.51
2018-05-17T07:08:14.352Z,1019.52
2018-05-17T07:09:23.216Z,1019.56
2018-05-17T07:10:32.145Z,1019.56
2018-05-17T07:11:41.253Z,1019.55
2018-05-17T07:12:50.168Z,1019.58
2018-05-17T07:13:59.307Z,1019.52
2018-05-17T07:15:08.455Z,1019.51
2018-05-17T07:16:17.315Z,1019.56
2018-05-17T07:17:26.180Z,1019.59
2018-05-17T07:18:35.687Z,1019.57
2018-05-17T07:19:44.360Z,1019.58
2018-05-17T07:20:53.495Z,1019.56
2018-05-17T07:22:02.357Z,1019.56
2018-05-17T07:23:11.216Z,1019.62
2018-05-17T07:24:20.225Z,1019.55
2018-05-17T07:25:29.362Z,1019.61
2018-05-17T07:26:38.507Z,1019.74
2018-05-17T07:27:47.370Z,1019.65
2018-05-17T07:28:56.229Z,1019.62
2018-05-17T07:30:05.671Z,1019.62
2018-05-17T07:31:14.537Z,1019.58
2018-05-17T07:32:23.701Z,1019.61
2018-05-17T07:33:32.568Z,1019.59
2018-05-17T07:34:41.706Z,1019.71
2018-05-17T07:35:50.616Z,1019.73
2018-05-17T07:36:59.754Z,1019.59
2018-05-17T07:38:08.617Z,1019.61
2018-05-17T07:39:17.846Z,1019.73
2018-05-17T07:40:26.940Z,1019.6
2018-05-17T07:41:35.851Z,1019.63
2018-05-17T07:42:44.712Z,1019.63
2018-05-17T07:43:53.575Z,1019.61
2018-05-17T07:45:02.437Z,1019.58
2018-05-17T07:46:11.498Z,1019.65
2018-05-17T07:47:20.715Z,1019.63
2018-05-17T07:48:29.843Z,1019.65
2018-05-17T07:49:38.707Z,1019.59
2018-05-17T07:50:47.567Z,1019.77
2018-05-17T07:51:56.439Z,1019.75
2018-05-17T07:53:05.639Z,1019.8
2018-05-17T07:54:14.781Z,1019.78
2018-05-17T07:55:23.641Z,1019.77
2018-05-17T07:56:32.796Z,1019.75
2018-05-17T07:57:41.659Z,1019.84
2018-05-17T07:58:50.618Z,1019.79
2018-05-17T07:59:59.477Z,1019.78
2018-05-17T08:01:08.339Z,1019.93
2018-05-17T08:02:17.197Z,1019.76
2018-05-17T08:03:26.059Z,1019.94
2018-05-17T08:04:34.919Z,1019.91
2018-05-17T08:05:43.779Z,1019.95
2018-05-17T08:06:52.639Z,1019.87
2018-05-17T08:08:01.500Z,1019.88
2018-05-17T08:09:10.369Z,1019.85
2018-05-17T08:10:19.580Z,1019.9
2018-05-17T08:11:28.440Z,1019.87
2018-05-17T08:12:37.304Z,1020.06
2018-05-17T08:13:46.167Z,1019.86
2018-05-17T08:14:55.025Z,1019.86
2018-05-17T08:16:03.987Z,1019.87
2018-05-17T08:17:12.857Z,1019.82
2018-05-17T08:18:21.719Z,1019.89
2018-05-17T08:19:30.579Z,1019.8
2018-05-17T08:20:39.718Z,1019.91
2018-05-17T08:21:48.728Z,1019.9
2018-05-17T08:22:57.587Z,1019.86
2018-05-17T08:24:06.738Z,1019.86
2018-05-17T08:25:15.600Z,1019.81
2018-05-17T08:26:24.739Z,1019.83
2018-05-17T08:27:33.852Z,1019.84
2018-05-17T08:28:42.993Z,1019.89
2018-05-17T08:29:52.183Z,1019.88
2018-05-17T08:31:01.044Z,1019.9
2018-05-17T08:32:10.229Z,1019.9
2018-05-17T08:33:19.800Z,1019.89
2018-05-17T08:34:28.660Z,1019.93
2018-05-17T08:35:37.524Z,1019.93
2018-05-17T08:36:46.437Z,1019.94
2018-05-17T08:37:55.667Z,1019.96
2018-05-17T08:39:04.808Z,1019.94
2018-05-17T08:40:13.673Z,1019.93
2018-05-17T08:41:22.532Z,1019.97
2018-05-17T08:42:31.453Z,1020.02
2018-05-17T08:43:40.954Z,1019.99
2018-05-17T08:44:50.369Z,1020.05
2018-05-17T08:45:59.232Z,1019.98
2018-05-17T08:47:08.093Z,1020.01
2018-05-17T08:48:17.242Z,1020.01
2018-05-17T08:49:26.381Z,1020.07
2018-05-17T08:50:35.596Z,1020.06
2018-05-17T08:51:44.460Z,1020.08
2018-05-17T08:52:53.321Z,1020.05
2018-05-17T08:54:02.193Z,1020.03
2018-05-17T08:55:11.335Z,1020.04
2018-05-17T08:56:20.908Z,1020.09
2018-05-17T08:57:30.053Z,1020.07
2018-05-17T08:58:39.198Z,1020.1
2018-05-17T08:59:48.111Z,1020.02
2018-05-17T09:00:56.924Z,1020.11
2018-05-17T09:02:06.110Z,1020.07
2018-05-17T09:03:14.901Z,1020.11
2018-05-17T09:04:23.762Z,1020.1
2018-05-17T09:05:32.624Z,1020.22
2018-05-17T09:06:41.486Z,1020.14
2018-05-17T09:07:50.449Z,1020.15
2018-05-17T09:08:59.310Z,1020.27
2018-05-17T09:10:08.184Z,1020.07
2018-05-17T09:11:17.343Z,1020.18
2018-05-17T09:12:26.194Z,1020.19
2018-05-17T09:13:35.234Z,1020.13
2018-05-17T09:14:44.448Z,1020.2
2018-05-17T09:15:53.309Z,1020.13
2018-05-17T09:17:02.175Z,1020.18
2018-05-17T09:18:11.313Z,1020.38
2018-05-17T09:19:20.552Z,1020.21
2018-05-17T09:20:29.471Z,1020.17
2018-05-17T09:21:38.279Z,1020.23
2018-05-17T09:22:47.142Z,1020.2
2018-05-17T09:23:56.007Z,1020.13
2018-05-17T09:25:05.530Z,1020.22
2018-05-17T09:26:14.388Z,1020.19
2018-05-17T09:27:23.249Z,1020.16
2018-05-17T09:28:32.110Z,1020.21
2018-05-17T09:29:40.978Z,1020.2
2018-05-17T09:30:50.214Z,1020.28
2018-05-17T09:31:59.368Z,1020.29
2018-05-17T09:33:08.233Z,1020.37
2018-05-17T09:34:17.100Z,1020.25
2018-05-17T09:35:25.954Z,1020.29
2018-05-17T09:36:35.115Z,1020.26
2018-05-17T09:37:43.979Z,1020.3
2018-05-17T09:38:53.119Z,1020.3
2018-05-17T09:40:02.259Z,1020.31
2018-05-17T09:41:11.119Z,1020.22
2018-05-17T09:42:19.983Z,1020.28
2018-05-17T09:43:28.852Z,1020.26
2018-05-17T09:44:37.713Z,1020.35
2018-05-17T09:45:46.577Z,1020.35
2018-05-17T09:46:55.441Z,1020.35
2018-05-17T09:48:04.683Z,1020.31
2018-05-17T09:49:13.549Z,1020.2
2018-05-17T09:50:22.971Z,1020.27
2018-05-17T09:51:32.105Z,1020.2
2018-05-17T09:52:40.971Z,1020.24
2018-05-17T09:53:50.162Z,1020.34
2018-05-17T09:54:59.074Z,1020.26
2018-05-17T09:56:07.889Z,1020.25
2018-05-17T09:57:16.751Z,1020.24
2018-05-17T09:58:25.612Z,1020.28
2018-05-17T09:59:34.537Z,1020.26
2018-05-17T10:00:43.397Z,1020.29
2018-05-17T10:01:52.258Z,1020.26
2018-05-17T10:03:01.121Z,1020.3
2018-05-17T10:04:09.986Z,1020.37
2018-05-17T10:05:18.906Z,1020.34
2018-05-17T10:06:27.765Z,1020.28
2018-05-17T10:07:36.629Z,1020.27
2018-05-17T10:08:45.782Z,1020.37
2018-05-17T10:09:54.931Z,1020.26
2018-05-17T10:11:03.945Z,1020.21
2018-05-17T10:12:12.809Z,1020.24
2018-05-17T10:13:21.674Z,1020.28
2018-05-17T10:14:30.548Z,1020.28
2018-05-17T10:15:40.535Z,1020.3
2018-05-17T10:16:49.544Z,1020.33
2018-05-17T10:17:58.413Z,1020.35
2018-05-17T10:19:07.556Z,1020.28
2018-05-17T10:20:16.700Z,1020.29
2018-05-17T10:21:25.564Z,1020.28
2018-05-17T10:22:34.485Z,1020.27
2018-05-17T10:23:43.623Z,1020.26
2018-05-17T10:24:52.486Z,1020.27
2018-05-17T10:26:01.351Z,1020.3
2018-05-17T10:27:10.219Z,1020.57
2018-05-17T10:28:19.411Z,1020.29
2018-05-17T10:29:28.370Z,1020.33
2018-05-17T10:30:37.799Z,1020.28
2018-05-17T10:31:47.232Z,1020.25
2018-05-17T10:32:56.098Z,1020.19
2018-05-17T10:34:05.250Z,1020.25
2018-05-17T10:35:14.111Z,1020.24
2018-05-17T10:36:23.254Z,1020.18
2018-05-17T10:37:32.116Z,1020.18
2018-05-17T10:38:40.982Z,1020.27
2018-05-17T10:39:49.946Z,1020.22
2018-05-17T10:40:58.811Z,1020.25
2018-05-17T10:42:07.735Z,1020.22
2018-05-17T10:43:17.210Z,1020.28
2018-05-17T10:44:26.075Z,1020.21
2018-05-17T10:45:35.387Z,1020.25
2018-05-17T10:46:44.252Z,1020.15
2018-05-17T10:47:53.390Z,1020.25
2018-05-17T10:49:02.569Z,1020.23
2018-05-17T10:50:11.958Z,1020.31
2018-05-17T10:51:21.178Z,1020.21
2018-05-17T10:52:30.321Z,1020.25
2018-05-17T10:53:39.469Z,1020.25
2018-05-17T10:54:48.328Z,1020.25
2018-05-17T10:55:57.191Z,1020.36
2018-05-17T10:57:06.482Z,1020.19
2018-05-17T10:58:15.347Z,1020.27
2018-05-17T10:59:24.209Z,1020.2
2018-05-17T11:00:33.075Z,1020.16
2018-05-17T11:01:41.939Z,1020.19
2018-05-17T11:02:50.953Z,1020.19
2018-05-17T11:03:59.815Z,1020.27
2018-05-17T11:05:09.252Z,1020.22
2018-05-17T11:06:18.112Z,1020.23
2018-05-17T11:07:26.976Z,1020.11
2018-05-17T11:08:35.938Z,1020.27
2018-05-17T11:09:44.804Z,1020.2
2018-05-17T11:10:53.670Z,1020.25
2018-05-17T11:12:02.811Z,1020.24
2018-05-17T11:13:12.269Z,1020.24
2018-05-17T11:14:21.181Z,1020.23
2018-05-17T11:15:30.042Z,1020.24
2018-05-17T11:16:39.184Z,1020.11
2018-05-17T11:17:48.048Z,1020.16
2018-05-17T11:18:56.912Z,1020.13
2018-05-17T11:20:05.826Z,1020.05
2018-05-17T11:21:14.689Z,1020.08
2018-05-17T11:22:23.551Z,1020.07
2018-05-17T11:23:32.414Z,1020.11
2018-05-17T11:24:41.277Z,1020.08
2018-05-17T11:25:50.243Z,1020.02
2018-05-17T11:26:59.737Z,1020.27
2018-05-17T11:28:08.880Z,1020.18
2018-05-17T11:29:17.744Z,1020.12
2018-05-17T11:30:26.605Z,1020.13
2018-05-17T11:31:35.621Z,1020.07
2018-05-17T11:32:44.487Z,1020.15
2018-05-17T11:33:53.353Z,1020.1
2018-05-17T11:35:02.213Z,1020.17
2018-05-17T11:36:11.080Z,1020.15
2018-05-17T11:37:20.333Z,1020.13
2018-05-17T11:38:29.478Z,1020.14
2018-05-17T11:39:38.338Z,1020.1
2018-05-17T11:40:47.480Z,1020.1
2018-05-17T11:41:56.619Z,1020.13
2018-05-17T11:43:05.911Z,1020.19
2018-05-17T11:44:14.800Z,1020.15
2018-05-17T11:45:24.321Z,1020.11
2018-05-17T11:46:33.186Z,1020.12
2018-05-17T11:47:42.053Z,1020.13
2018-05-17T11:48:51.016Z,1020.13
2018-05-17T11:50:00.156Z,1020.13
2018-05-17T11:51:09.019Z,1020.09
2018-05-17T11:52:17.886Z,1020.12
2018-05-17T11:53:26.744Z,1020.1
2018-05-17T11:54:35.607Z,1020.3
2018-05-17T11:55:44.469Z,1020.19
2018-05-17T11:56:53.888Z,1020.08
2018-05-17T11:58:02.752Z,1020.09
2018-05-17T11:59:11.617Z,1020.13
2018-05-17T12:00:20.856Z,1020.19
2018-05-17T12:01:29.817Z,1020.22
2018-05-17T12:02:39.105Z,1020.1
2018-05-17T12:03:47.910Z,1020.04
2018-05-17T12:04:56.772Z,1020.01
2018-05-17T12:06:05.685Z,1020.06
2018-05-17T12:07:14.771Z,1020.01
2018-05-17T12:08:24.756Z,1020.08
2018-05-17T12:09:34.092Z,1020.01
2018-05-17T12:10:42.955Z,1020
2018-05-17T12:11:51.967Z,1019.99
2018-05-17T12:13:01.162Z,1020.02
2018-05-17T12:14:10.037Z,1019.96
2018-05-17T12:15:19.184Z,1019.96
2018-05-17T12:16:28.317Z,1020.06
2018-05-17T12:17:38.362Z,1020.02
2018-05-17T12:18:47.226Z,1020.12
2018-05-17T12:19:56.367Z,1020.02
2018-05-17T12:21:05.303Z,1020.1
2018-05-17T12:22:14.451Z,1020.03
2018-05-17T12:23:23.634Z,1020.07
2018-05-17T12:24:32.776Z,1020
2018-05-17T12:25:41.925Z,1019.99
2018-05-17T12:26:51.070Z,1019.98
2018-05-17T12:28:00.209Z,1019.97
2018-05-17T12:29:09.141Z,1019.96
2018-05-17T12:30:18.091Z,1019.95
2018-05-17T12:31:26.935Z,1019.97
2018-05-17T12:32:36.150Z,1019.95
2018-05-17T12:33:45.017Z,1019.98
2018-05-17T12:34:54.546Z,1019.91
2018-05-17T12:36:03.692Z,1019.94
2018-05-17T12:37:12.792Z,1019.9
2018-05-17T12:38:21.524Z,1019.85
2018-05-17T12:39:30.661Z,1019.89
2018-05-17T12:40:40.164Z,1019.94
2018-05-17T12:41:49.025Z,1019.8
2018-05-17T12:42:57.893Z,1019.86
2018-05-17T12:44:07.086Z,1019.91
2018-05-17T12:45:16.234Z,1019.84
2018-05-17T12:46:25.249Z,1019.84
2018-05-17T12:47:34.392Z,1019.89
2018-05-17T12:48:43.255Z,1019.83
2018-05-17T12:49:52.681Z,1019.84
2018-05-17T12:51:01.547Z,1019.81
2018-05-17T12:52:10.408Z,1019.84
2018-05-17T12:53:19.550Z,1019.92
2018-05-17T12:54:28.691Z,1019.96
2018-05-17T12:55:37.556Z,1020.01
2018-05-17T12:56:46.781Z,1019.92
2018-05-17T12:57:55.610Z,1019.91
2018-05-17T12:59:04.767Z,1019.89
2018-05-17T13:00:13.909Z,1019.91
2018-05-17T13:01:22.779Z,1019.95
2018-05-17T13:02:31.643Z,1019.94
2018-05-17T13:03:40.665Z,1019.87
2018-05-17T13:04:49.519Z,1019.82
2018-05-17T13:05:58.660Z,1019.83
2018-05-17T13:07:07.527Z,1019.84
2018-05-17T13:08:16.388Z,1019.88
2018-05-17T13:09:26.237Z,1019.86
2018-05-17T13:10:35.107Z,1019.81
2018-05-17T13:11:44.246Z,1019.86
2018-05-17T13:12:53.122Z,1019.85
2018-05-17T13:14:01.977Z,1019.85
2018-05-17T13:15:11.290Z,1019.86
2018-05-17T13:16:20.369Z,1019.82
2018-05-17T13:17:29.238Z,1019.82
2018-05-17T13:18:38.375Z,1019.87
2018-05-17T13:19:47.239Z,1019.84
2018-05-17T13:20:56.156Z,1019.85
2018-05-17T13:22:05.297Z,1019.83
2018-05-17T13:23:14.436Z,1019.81
2018-05-17T13:24:23.857Z,1019.82
2018-05-17T13:25:32.720Z,1019.81
2018-05-17T13:26:41.932Z,1019.74
2018-05-17T13:27:51.078Z,1019.81
2018-05-17T13:28:59.942Z,1019.85
2018-05-17T13:30:09.100Z,1019.82
2018-05-17T13:31:17.960Z,1019.85
2018-05-17T13:32:26.876Z,1019.83
2018-05-17T13:33:35.741Z,1019.81
2018-05-17T13:34:44.599Z,1019.85
2018-05-17T13:35:53.467Z,1019.96
2018-05-17T13:37:02.329Z,1019.88
2018-05-17T13:38:11.623Z,1019.81
2018-05-17T13:39:20.783Z,1019.78
2018-05-17T13:40:29.649Z,1019.78
2018-05-17T13:41:38.515Z,1019.76
2018-05-17T13:42:47.653Z,1019.84
2018-05-17T13:43:56.803Z,1019.81
2018-05-17T13:45:05.656Z,1019.8
2018-05-17T13:46:14.522Z,1019.75
2018-05-17T13:47:24.062Z,1019.77
2018-05-17T13:48:32.928Z,1019.71
2018-05-17T13:49:42.138Z,1019.72
2018-05-17T13:50:51.293Z,1019.71
2018-05-17T13:52:00.154Z,1019.69
2018-05-17T13:53:09.293Z,1019.74
2018-05-17T13:54:18.436Z,1019.73
2018-05-17T13:55:27.830Z,1019.66
2018-05-17T13:56:37.650Z,1019.74
2018-05-17T13:57:46.798Z,1019.69